sensor_id;sensor_type;location;lat;lon;timestamp;P1;durP1;ratioP1;P2;durP2;ratioP2
51943;SDS011;37969;53.132;6.370;2024-02-28T00:00:41;146.27;;;39.20;;
51943;SDS011;37969;53.132;6.370;2024-02-28T00:03:08;121.72;;;37.97;;
51943;SDS011;37969;53.132;6.370;2024-02-28T00:05:34;102.18;;;35.33;;
51943;SDS011;37969;53.132;6.370;2024-02-28T00:08:01;122.07;;;37.88;;
51943;SDS011;37969;53.132;6.370;2024-02-28T00:10:29;131.77;;;38.60;;
51943;SDS011;37969;53.132;6.370;2024-02-28T00:12:56;108.25;;;36.97;;
51943;SDS011;37969;53.132;6.370;2024-02-28T00:15:23;89.85;;;36.15;;
51943;SDS011;37969;53.132;6.370;2024-02-28T00:17:51;125.70;;;39.03;;
51943;SDS011;37969;53.132;6.370;2024-02-28T00:20:18;127.28;;;38.42;;
51943;SDS011;37969;53.132;6.370;2024-02-28T00:22:46;161.60;;;41.17;;
51943;SDS011;37969;53.132;6.370;2024-02-28T00:25:12;156.55;;;41.58;;
51943;SDS011;37969;53.132;6.370;2024-02-28T00:27:41;104.30;;;35.80;;
51943;SDS011;37969;53.132;6.370;2024-02-28T00:30:13;99.32;;;36.85;;
51943;SDS011;37969;53.132;6.370;2024-02-28T00:32:41;109.45;;;36.08;;
51943;SDS011;37969;53.132;6.370;2024-02-28T00:35:07;138.18;;;37.47;;
51943;SDS011;37969;53.132;6.370;2024-02-28T00:37:34;114.68;;;38.22;;
51943;SDS011;37969;53.132;6.370;2024-02-28T00:40:03;114.32;;;36.65;;
51943;SDS011;37969;53.132;6.370;2024-02-28T00:42:32;111.82;;;39.42;;
51943;SDS011;37969;53.132;6.370;2024-02-28T00:45:01;110.07;;;36.45;;
51943;SDS011;37969;53.132;6.370;2024-02-28T00:47:30;126.07;;;39.58;;
51943;SDS011;37969;53.132;6.370;2024-02-28T00:50:00;123.68;;;38.45;;
51943;SDS011;37969;53.132;6.370;2024-02-28T00:52:28;100.00;;;37.28;;
51943;SDS011;37969;53.132;6.370;2024-02-28T00:54:57;123.10;;;37.10;;
51943;SDS011;37969;53.132;6.370;2024-02-28T00:57:23;120.85;;;39.58;;
51943;SDS011;37969;53.132;6.370;2024-02-28T00:59:49;126.55;;;39.20;;
51943;SDS011;37969;53.132;6.370;2024-02-28T01:02:16;115.90;;;38.08;;
51943;SDS011;37969;53.132;6.370;2024-02-28T01:04:43;123.53;;;39.03;;
51943;SDS011;37969;53.132;6.370;2024-02-28T01:07:09;162.48;;;42.25;;
51943;SDS011;37969;53.132;6.370;2024-02-28T01:09:35;132.27;;;41.13;;
51943;SDS011;37969;53.132;6.370;2024-02-28T01:12:02;140.82;;;40.42;;
51943;SDS011;37969;53.132;6.370;2024-02-28T01:14:29;155.27;;;42.67;;
51943;SDS011;37969;53.132;6.370;2024-02-28T01:16:57;128.10;;;39.50;;
51943;SDS011;37969;53.132;6.370;2024-02-28T01:19:23;138.98;;;43.05;;
51943;SDS011;37969;53.132;6.370;2024-02-28T01:21:51;132.63;;;41.58;;
51943;SDS011;37969;53.132;6.370;2024-02-28T01:24:17;131.15;;;40.40;;
51943;SDS011;37969;53.132;6.370;2024-02-28T01:26:46;132.67;;;40.60;;
51943;SDS011;37969;53.132;6.370;2024-02-28T01:29:13;116.97;;;39.00;;
51943;SDS011;37969;53.132;6.370;2024-02-28T01:31:40;125.85;;;38.53;;
51943;SDS011;37969;53.132;6.370;2024-02-28T01:34:06;135.65;;;40.90;;
51943;SDS011;37969;53.132;6.370;2024-02-28T01:36:35;124.28;;;40.13;;
51943;SDS011;37969;53.132;6.370;2024-02-28T01:39:01;130.15;;;40.90;;
51943;SDS011;37969;53.132;6.370;2024-02-28T01:41:29;122.93;;;39.90;;
51943;SDS011;37969;53.132;6.370;2024-02-28T01:43:57;151.25;;;43.53;;
51943;SDS011;37969;53.132;6.370;2024-02-28T01:46:29;147.07;;;39.97;;
51943;SDS011;37969;53.132;6.370;2024-02-28T01:48:57;119.13;;;40.10;;
51943;SDS011;37969;53.132;6.370;2024-02-28T01:51:25;122.28;;;38.45;;
51943;SDS011;37969;53.132;6.370;2024-02-28T01:53:53;153.00;;;42.50;;
51943;SDS011;37969;53.132;6.370;2024-02-28T01:56:20;132.25;;;40.78;;
51943;SDS011;37969;53.132;6.370;2024-02-28T01:58:49;134.35;;;41.58;;
51943;SDS011;37969;53.132;6.370;2024-02-28T02:01:17;130.10;;;40.13;;
51943;SDS011;37969;53.132;6.370;2024-02-28T02:03:45;136.82;;;38.85;;
51943;SDS011;37969;53.132;6.370;2024-02-28T02:06:11;146.27;;;41.72;;
51943;SDS011;37969;53.132;6.370;2024-02-28T02:08:38;151.25;;;42.70;;
51943;SDS011;37969;53.132;6.370;2024-02-28T02:11:05;144.32;;;43.20;;
51943;SDS011;37969;53.132;6.370;2024-02-28T02:13:32;140.32;;;41.67;;
51943;SDS011;37969;53.132;6.370;2024-02-28T02:16:03;163.45;;;45.08;;
51943;SDS011;37969;53.132;6.370;2024-02-28T02:18:32;146.20;;;39.63;;
51943;SDS011;37969;53.132;6.370;2024-02-28T02:21:01;123.45;;;39.20;;
51943;SDS011;37969;53.132;6.370;2024-02-28T02:23:32;142.57;;;41.53;;
51943;SDS011;37969;53.132;6.370;2024-02-28T02:26:04;146.27;;;41.22;;
51943;SDS011;37969;53.132;6.370;2024-02-28T02:28:30;123.95;;;38.17;;
51943;SDS011;37969;53.132;6.370;2024-02-28T02:30:59;136.50;;;40.30;;
51943;SDS011;37969;53.132;6.370;2024-02-28T02:33:25;133.18;;;41.78;;
51943;SDS011;37969;53.132;6.370;2024-02-28T02:35:53;136.02;;;40.17;;
51943;SDS011;37969;53.132;6.370;2024-02-28T02:38:19;136.73;;;41.80;;
51943;SDS011;37969;53.132;6.370;2024-02-28T02:40:48;116.18;;;39.67;;
51943;SDS011;37969;53.132;6.370;2024-02-28T02:43:17;150.02;;;42.95;;
51943;SDS011;37969;53.132;6.370;2024-02-28T02:45:44;109.40;;;40.00;;
51943;SDS011;37969;53.132;6.370;2024-02-28T02:48:10;121.28;;;41.05;;
51943;SDS011;37969;53.132;6.370;2024-02-28T02:50:39;135.43;;;43.53;;
51943;SDS011;37969;53.132;6.370;2024-02-28T02:53:09;133.75;;;43.58;;
51943;SDS011;37969;53.132;6.370;2024-02-28T02:55:37;131.05;;;42.83;;
51943;SDS011;37969;53.132;6.370;2024-02-28T02:58:04;137.15;;;43.20;;
51943;SDS011;37969;53.132;6.370;2024-02-28T03:00:32;135.98;;;45.53;;
51943;SDS011;37969;53.132;6.370;2024-02-28T03:03:02;136.68;;;43.60;;
51943;SDS011;37969;53.132;6.370;2024-02-28T03:05:30;126.95;;;42.75;;
51943;SDS011;37969;53.132;6.370;2024-02-28T03:07:59;132.77;;;44.90;;
51943;SDS011;37969;53.132;6.370;2024-02-28T03:10:29;135.40;;;44.10;;
51943;SDS011;37969;53.132;6.370;2024-02-28T03:12:58;120.47;;;43.33;;
51943;SDS011;37969;53.132;6.370;2024-02-28T03:15:26;131.35;;;43.75;;
51943;SDS011;37969;53.132;6.370;2024-02-28T03:17:53;135.95;;;46.25;;
51943;SDS011;37969;53.132;6.370;2024-02-28T03:20:21;155.18;;;47.67;;
51943;SDS011;37969;53.132;6.370;2024-02-28T03:22:49;128.57;;;45.88;;
51943;SDS011;37969;53.132;6.370;2024-02-28T03:25:15;132.85;;;45.42;;
51943;SDS011;37969;53.132;6.370;2024-02-28T03:27:41;150.10;;;47.30;;
51943;SDS011;37969;53.132;6.370;2024-02-28T03:30:12;134.48;;;44.70;;
51943;SDS011;37969;53.132;6.370;2024-02-28T03:32:39;130.35;;;45.97;;
51943;SDS011;37969;53.132;6.370;2024-02-28T03:35:07;132.85;;;45.75;;
51943;SDS011;37969;53.132;6.370;2024-02-28T03:37:38;128.95;;;45.53;;
51943;SDS011;37969;53.132;6.370;2024-02-28T03:40:05;141.98;;;47.30;;
51943;SDS011;37969;53.132;6.370;2024-02-28T03:42:40;133.07;;;46.72;;
51943;SDS011;37969;53.132;6.370;2024-02-28T03:45:07;148.30;;;48.35;;
51943;SDS011;37969;53.132;6.370;2024-02-28T03:47:34;114.35;;;44.42;;
51943;SDS011;37969;53.132;6.370;2024-02-28T03:50:05;113.53;;;43.50;;
51943;SDS011;37969;53.132;6.370;2024-02-28T03:52:31;111.53;;;44.88;;
51943;SDS011;37969;53.132;6.370;2024-02-28T03:55:07;112.60;;;44.47;;
51943;SDS011;37969;53.132;6.370;2024-02-28T03:57:37;100.88;;;41.63;;
51943;SDS011;37969;53.132;6.370;2024-02-28T04:00:12;100.63;;;40.30;;
51943;SDS011;37969;53.132;6.370;2024-02-28T04:02:40;103.43;;;42.05;;
51943;SDS011;37969;53.132;6.370;2024-02-28T04:05:09;97.93;;;41.17;;
51943;SDS011;37969;53.132;6.370;2024-02-28T04:07:42;95.97;;;39.88;;
51943;SDS011;37969;53.132;6.370;2024-02-28T04:10:10;109.38;;;41.00;;
51943;SDS011;37969;53.132;6.370;2024-02-28T04:12:36;112.40;;;42.22;;
51943;SDS011;37969;53.132;6.370;2024-02-28T04:15:03;100.75;;;41.20;;
51943;SDS011;37969;53.132;6.370;2024-02-28T04:17:29;97.93;;;41.03;;
51943;SDS011;37969;53.132;6.370;2024-02-28T04:19:59;96.78;;;40.42;;
51943;SDS011;37969;53.132;6.370;2024-02-28T04:22:29;100.05;;;40.33;;
51943;SDS011;37969;53.132;6.370;2024-02-28T04:24:57;93.45;;;39.20;;
51943;SDS011;37969;53.132;6.370;2024-02-28T04:27:26;94.28;;;39.63;;
51943;SDS011;37969;53.132;6.370;2024-02-28T04:29:59;103.47;;;40.30;;
51943;SDS011;37969;53.132;6.370;2024-02-28T04:32:27;92.57;;;39.95;;
51943;SDS011;37969;53.132;6.370;2024-02-28T04:34:56;82.00;;;37.25;;
51943;SDS011;37969;53.132;6.370;2024-02-28T04:37:25;85.43;;;39.17;;
51943;SDS011;37969;53.132;6.370;2024-02-28T04:39:51;96.93;;;40.40;;
51943;SDS011;37969;53.132;6.370;2024-02-28T04:42:21;92.25;;;39.55;;
51943;SDS011;37969;53.132;6.370;2024-02-28T04:44:47;88.20;;;39.40;;
51943;SDS011;37969;53.132;6.370;2024-02-28T04:47:16;91.63;;;39.00;;
51943;SDS011;37969;53.132;6.370;2024-02-28T04:49:45;84.90;;;39.13;;
51943;SDS011;37969;53.132;6.370;2024-02-28T04:52:12;86.47;;;39.42;;
51943;SDS011;37969;53.132;6.370;2024-02-28T04:54:42;88.50;;;38.70;;
51943;SDS011;37969;53.132;6.370;2024-02-28T04:57:10;82.75;;;38.00;;
51943;SDS011;37969;53.132;6.370;2024-02-28T04:59:37;85.25;;;39.53;;
51943;SDS011;37969;53.132;6.370;2024-02-28T05:02:10;88.53;;;39.63;;
51943;SDS011;37969;53.132;6.370;2024-02-28T05:04:37;88.40;;;39.00;;
51943;SDS011;37969;53.132;6.370;2024-02-28T05:07:08;85.75;;;38.65;;
51943;SDS011;37969;53.132;6.370;2024-02-28T05:09:35;79.45;;;35.60;;
51943;SDS011;37969;53.132;6.370;2024-02-28T05:12:02;79.68;;;37.88;;
51943;SDS011;37969;53.132;6.370;2024-02-28T05:14:28;85.68;;;39.25;;
51943;SDS011;37969;53.132;6.370;2024-02-28T05:16:58;75.82;;;35.88;;
51943;SDS011;37969;53.132;6.370;2024-02-28T05:19:29;81.22;;;38.13;;
51943;SDS011;37969;53.132;6.370;2024-02-28T05:21:56;80.10;;;38.05;;
51943;SDS011;37969;53.132;6.370;2024-02-28T05:24:23;75.03;;;36.63;;
51943;SDS011;37969;53.132;6.370;2024-02-28T05:26:52;80.00;;;37.93;;
51943;SDS011;37969;53.132;6.370;2024-02-28T05:29:20;78.60;;;38.50;;
51943;SDS011;37969;53.132;6.370;2024-02-28T05:31:51;83.72;;;39.20;;
51943;SDS011;37969;53.132;6.370;2024-02-28T05:34:17;81.28;;;38.40;;
51943;SDS011;37969;53.132;6.370;2024-02-28T05:36:46;86.07;;;37.10;;
51943;SDS011;37969;53.132;6.370;2024-02-28T05:39:15;85.30;;;38.45;;
51943;SDS011;37969;53.132;6.370;2024-02-28T05:41:46;81.75;;;38.05;;
51943;SDS011;37969;53.132;6.370;2024-02-28T05:44:17;79.65;;;38.15;;
51943;SDS011;37969;53.132;6.370;2024-02-28T05:46:45;81.38;;;39.35;;
51943;SDS011;37969;53.132;6.370;2024-02-28T05:49:11;85.32;;;41.45;;
51943;SDS011;37969;53.132;6.370;2024-02-28T05:51:39;91.60;;;39.72;;
51943;SDS011;37969;53.132;6.370;2024-02-28T05:54:06;82.88;;;39.53;;
51943;SDS011;37969;53.132;6.370;2024-02-28T05:56:35;92.65;;;40.83;;
51943;SDS011;37969;53.132;6.370;2024-02-28T05:59:02;89.63;;;39.70;;
51943;SDS011;37969;53.132;6.370;2024-02-28T06:01:31;88.95;;;39.92;;
51943;SDS011;37969;53.132;6.370;2024-02-28T06:04:02;82.88;;;37.85;;
51943;SDS011;37969;53.132;6.370;2024-02-28T06:06:29;89.18;;;40.63;;
51943;SDS011;37969;53.132;6.370;2024-02-28T06:08:57;93.32;;;41.65;;
51943;SDS011;37969;53.132;6.370;2024-02-28T06:11:25;91.97;;;39.90;;
51943;SDS011;37969;53.132;6.370;2024-02-28T06:13:51;88.30;;;38.55;;
51943;SDS011;37969;53.132;6.370;2024-02-28T06:16:17;93.13;;;42.90;;
51943;SDS011;37969;53.132;6.370;2024-02-28T06:21:14;97.10;;;39.53;;
51943;SDS011;37969;53.132;6.370;2024-02-28T06:23:46;104.95;;;42.88;;
51943;SDS011;37969;53.132;6.370;2024-02-28T06:26:15;101.07;;;41.80;;
51943;SDS011;37969;53.132;6.370;2024-02-28T06:28:44;100.93;;;40.60;;
51943;SDS011;37969;53.132;6.370;2024-02-28T06:31:14;112.25;;;42.65;;
51943;SDS011;37969;53.132;6.370;2024-02-28T06:33:44;115.75;;;43.50;;
51943;SDS011;37969;53.132;6.370;2024-02-28T06:36:13;118.95;;;44.33;;
51943;SDS011;37969;53.132;6.370;2024-02-28T06:38:41;121.90;;;46.30;;
51943;SDS011;37969;53.132;6.370;2024-02-28T06:41:09;120.63;;;45.38;;
51943;SDS011;37969;53.132;6.370;2024-02-28T06:43:37;121.55;;;45.55;;
51943;SDS011;37969;53.132;6.370;2024-02-28T06:46:03;117.38;;;47.15;;
51943;SDS011;37969;53.132;6.370;2024-02-28T06:48:29;125.63;;;46.38;;
51943;SDS011;37969;53.132;6.370;2024-02-28T06:50:56;119.00;;;46.05;;
51943;SDS011;37969;53.132;6.370;2024-02-28T06:53:25;115.35;;;45.60;;
51943;SDS011;37969;53.132;6.370;2024-02-28T06:55:51;105.68;;;45.08;;
51943;SDS011;37969;53.132;6.370;2024-02-28T06:58:17;115.45;;;45.65;;
51943;SDS011;37969;53.132;6.370;2024-02-28T07:00:45;109.20;;;46.00;;
51943;SDS011;37969;53.132;6.370;2024-02-28T07:03:16;107.30;;;45.60;;
51943;SDS011;37969;53.132;6.370;2024-02-28T07:05:43;107.82;;;45.80;;
51943;SDS011;37969;53.132;6.370;2024-02-28T07:08:10;101.88;;;44.38;;
51943;SDS011;37969;53.132;6.370;2024-02-28T07:10:36;97.00;;;45.50;;
51943;SDS011;37969;53.132;6.370;2024-02-28T07:13:04;90.07;;;41.50;;
51943;SDS011;37969;53.132;6.370;2024-02-28T07:15:31;90.28;;;42.10;;
51943;SDS011;37969;53.132;6.370;2024-02-28T07:17:58;94.35;;;42.55;;
51943;SDS011;37969;53.132;6.370;2024-02-28T07:20:25;86.35;;;39.00;;
51943;SDS011;37969;53.132;6.370;2024-02-28T07:22:54;84.68;;;41.67;;
51943;SDS011;37969;53.132;6.370;2024-02-28T07:25:20;85.88;;;40.67;;
51943;SDS011;37969;53.132;6.370;2024-02-28T07:27:47;85.63;;;41.45;;
51943;SDS011;37969;53.132;6.370;2024-02-28T07:30:14;84.90;;;41.63;;
51943;SDS011;37969;53.132;6.370;2024-02-28T07:32:42;81.93;;;40.15;;
51943;SDS011;37969;53.132;6.370;2024-02-28T07:35:09;75.78;;;38.88;;
51943;SDS011;37969;53.132;6.370;2024-02-28T07:37:38;76.70;;;38.67;;
51943;SDS011;37969;53.132;6.370;2024-02-28T07:40:09;76.72;;;38.40;;
51943;SDS011;37969;53.132;6.370;2024-02-28T07:42:42;80.85;;;38.83;;
51943;SDS011;37969;53.132;6.370;2024-02-28T07:45:09;83.95;;;39.33;;
51943;SDS011;37969;53.132;6.370;2024-02-28T07:47:36;80.50;;;41.25;;
51943;SDS011;37969;53.132;6.370;2024-02-28T07:50:05;80.47;;;39.45;;
51943;SDS011;37969;53.132;6.370;2024-02-28T07:52:35;84.20;;;39.67;;
51943;SDS011;37969;53.132;6.370;2024-02-28T07:55:03;87.00;;;39.22;;
51943;SDS011;37969;53.132;6.370;2024-02-28T07:57:31;77.38;;;40.22;;
51943;SDS011;37969;53.132;6.370;2024-02-28T07:59:58;81.47;;;41.03;;
51943;SDS011;37969;53.132;6.370;2024-02-28T08:02:28;81.22;;;39.60;;
51943;SDS011;37969;53.132;6.370;2024-02-28T08:04:56;84.20;;;41.88;;
51943;SDS011;37969;53.132;6.370;2024-02-28T08:07:22;83.03;;;40.13;;
51943;SDS011;37969;53.132;6.370;2024-02-28T08:09:51;84.72;;;42.13;;
51943;SDS011;37969;53.132;6.370;2024-02-28T08:12:19;83.63;;;40.53;;
51943;SDS011;37969;53.132;6.370;2024-02-28T08:14:48;85.10;;;41.05;;
51943;SDS011;37969;53.132;6.370;2024-02-28T08:17:14;80.05;;;40.60;;
51943;SDS011;37969;53.132;6.370;2024-02-28T08:19:42;91.05;;;41.30;;
51943;SDS011;37969;53.132;6.370;2024-02-28T08:22:14;78.38;;;40.20;;
51943;SDS011;37969;53.132;6.370;2024-02-28T08:24:41;86.07;;;41.05;;
51943;SDS011;37969;53.132;6.370;2024-02-28T08:27:09;75.97;;;39.72;;
51943;SDS011;37969;53.132;6.370;2024-02-28T08:29:39;82.53;;;40.03;;
51943;SDS011;37969;53.132;6.370;2024-02-28T08:32:10;80.45;;;39.92;;
51943;SDS011;37969;53.132;6.370;2024-02-28T08:34:43;73.95;;;38.88;;
51943;SDS011;37969;53.132;6.370;2024-02-28T08:39:47;78.25;;;39.53;;
51943;SDS011;37969;53.132;6.370;2024-02-28T08:42:13;68.20;;;37.22;;
51943;SDS011;37969;53.132;6.370;2024-02-28T08:44:40;71.68;;;37.80;;
51943;SDS011;37969;53.132;6.370;2024-02-28T08:47:08;66.60;;;38.63;;
51943;SDS011;37969;53.132;6.370;2024-02-28T08:49:40;75.00;;;39.33;;
51943;SDS011;37969;53.132;6.370;2024-02-28T08:52:06;81.78;;;40.97;;
51943;SDS011;37969;53.132;6.370;2024-02-28T08:54:33;65.57;;;36.33;;
51943;SDS011;37969;53.132;6.370;2024-02-28T08:57:01;70.63;;;37.45;;
51943;SDS011;37969;53.132;6.370;2024-02-28T08:59:29;75.10;;;38.20;;
51943;SDS011;37969;53.132;6.370;2024-02-28T09:01:55;65.63;;;35.42;;
51943;SDS011;37969;53.132;6.370;2024-02-28T09:04:24;73.32;;;38.28;;
51943;SDS011;37969;53.132;6.370;2024-02-28T09:06:50;85.47;;;40.25;;
51943;SDS011;37969;53.132;6.370;2024-02-28T09:09:18;66.97;;;36.45;;
51943;SDS011;37969;53.132;6.370;2024-02-28T09:11:46;62.83;;;36.08;;
51943;SDS011;37969;53.132;6.370;2024-02-28T09:14:13;69.75;;;38.40;;
51943;SDS011;37969;53.132;6.370;2024-02-28T09:16:41;72.45;;;39.55;;
51943;SDS011;37969;53.132;6.370;2024-02-28T09:19:08;66.13;;;37.90;;
51943;SDS011;37969;53.132;6.370;2024-02-28T09:21:40;67.15;;;36.90;;
51943;SDS011;37969;53.132;6.370;2024-02-28T09:24:09;65.70;;;37.50;;
51943;SDS011;37969;53.132;6.370;2024-02-28T09:26:38;87.80;;;39.47;;
51943;SDS011;37969;53.132;6.370;2024-02-28T09:29:08;63.92;;;36.83;;
51943;SDS011;37969;53.132;6.370;2024-02-28T09:31:34;64.38;;;38.83;;
51943;SDS011;37969;53.132;6.370;2024-02-28T09:34:03;76.60;;;37.97;;
51943;SDS011;37969;53.132;6.370;2024-02-28T09:36:42;100.07;;;41.95;;
51943;SDS011;37969;53.132;6.370;2024-02-28T09:39:11;72.85;;;38.55;;
51943;SDS011;37969;53.132;6.370;2024-02-28T09:41:42;88.32;;;41.03;;
51943;SDS011;37969;53.132;6.370;2024-02-28T09:44:12;82.13;;;39.72;;
51943;SDS011;37969;53.132;6.370;2024-02-28T09:46:41;66.95;;;40.38;;
51943;SDS011;37969;53.132;6.370;2024-02-28T09:49:14;64.63;;;36.90;;
51943;SDS011;37969;53.132;6.370;2024-02-28T09:54:11;69.78;;;38.67;;
51943;SDS011;37969;53.132;6.370;2024-02-28T09:56:40;72.93;;;38.77;;
51943;SDS011;37969;53.132;6.370;2024-02-28T09:59:10;90.65;;;42.00;;
51943;SDS011;37969;53.132;6.370;2024-02-28T10:01:41;75.63;;;40.17;;
51943;SDS011;37969;53.132;6.370;2024-02-28T10:04:09;100.32;;;46.20;;
51943;SDS011;37969;53.132;6.370;2024-02-28T10:06:39;64.68;;;38.45;;
51943;SDS011;37969;53.132;6.370;2024-02-28T10:09:06;71.22;;;39.53;;
51943;SDS011;37969;53.132;6.370;2024-02-28T10:11:35;78.18;;;42.03;;
51943;SDS011;37969;53.132;6.370;2024-02-28T10:14:05;65.13;;;37.65;;
51943;SDS011;37969;53.132;6.370;2024-02-28T10:16:35;65.60;;;37.78;;
51943;SDS011;37969;53.132;6.370;2024-02-28T10:19:01;64.03;;;37.75;;
51943;SDS011;37969;53.132;6.370;2024-02-28T10:21:30;67.22;;;39.38;;
51943;SDS011;37969;53.132;6.370;2024-02-28T10:23:58;75.90;;;39.92;;
51943;SDS011;37969;53.132;6.370;2024-02-28T10:26:28;71.22;;;40.10;;
51943;SDS011;37969;53.132;6.370;2024-02-28T10:29:01;72.43;;;40.13;;
51943;SDS011;37969;53.132;6.370;2024-02-28T10:31:32;67.60;;;38.22;;
51943;SDS011;37969;53.132;6.370;2024-02-28T10:34:00;67.95;;;39.78;;
51943;SDS011;37969;53.132;6.370;2024-02-28T10:36:27;68.63;;;39.60;;
51943;SDS011;37969;53.132;6.370;2024-02-28T10:38:56;73.07;;;39.47;;
51943;SDS011;37969;53.132;6.370;2024-02-28T10:41:25;75.57;;;41.83;;
51943;SDS011;37969;53.132;6.370;2024-02-28T10:43:51;71.00;;;39.45;;
51943;SDS011;37969;53.132;6.370;2024-02-28T10:46:22;76.88;;;40.55;;
51943;SDS011;37969;53.132;6.370;2024-02-28T10:48:49;70.63;;;40.00;;
51943;SDS011;37969;53.132;6.370;2024-02-28T10:51:22;90.50;;;42.15;;
51943;SDS011;37969;53.132;6.370;2024-02-28T10:54:00;75.68;;;41.60;;
51943;SDS011;37969;53.132;6.370;2024-02-28T10:56:30;80.17;;;41.93;;
51943;SDS011;37969;53.132;6.370;2024-02-28T10:58:58;68.85;;;39.33;;
51943;SDS011;37969;53.132;6.370;2024-02-28T11:01:25;73.15;;;39.78;;
51943;SDS011;37969;53.132;6.370;2024-02-28T11:03:54;77.55;;;39.58;;
51943;SDS011;37969;53.132;6.370;2024-02-28T11:06:24;64.32;;;36.45;;
51943;SDS011;37969;53.132;6.370;2024-02-28T11:08:52;64.47;;;38.58;;
51943;SDS011;37969;53.132;6.370;2024-02-28T11:11:22;72.73;;;40.23;;
51943;SDS011;37969;53.132;6.370;2024-02-28T11:13:52;67.22;;;39.80;;
51943;SDS011;37969;53.132;6.370;2024-02-28T11:16:27;63.95;;;36.67;;
51943;SDS011;37969;53.132;6.370;2024-02-28T11:18:59;55.03;;;33.67;;
51943;SDS011;37969;53.132;6.370;2024-02-28T11:21:29;74.95;;;39.40;;
51943;SDS011;37969;53.132;6.370;2024-02-28T11:23:59;59.90;;;36.38;;
51943;SDS011;37969;53.132;6.370;2024-02-28T11:26:28;66.68;;;37.83;;
51943;SDS011;37969;53.132;6.370;2024-02-28T11:28:55;62.13;;;36.00;;
51943;SDS011;37969;53.132;6.370;2024-02-28T11:31:24;63.22;;;38.40;;
51943;SDS011;37969;53.132;6.370;2024-02-28T11:33:51;59.85;;;37.63;;
51943;SDS011;37969;53.132;6.370;2024-02-28T11:36:21;60.85;;;38.22;;
51943;SDS011;37969;53.132;6.370;2024-02-28T11:38:49;63.70;;;37.90;;
51943;SDS011;37969;53.132;6.370;2024-02-28T11:41:26;61.85;;;38.92;;
51943;SDS011;37969;53.132;6.370;2024-02-28T11:43:54;66.32;;;38.10;;
51943;SDS011;37969;53.132;6.370;2024-02-28T11:46:26;60.30;;;37.75;;
51943;SDS011;37969;53.132;6.370;2024-02-28T11:48:55;62.08;;;39.80;;
51943;SDS011;37969;53.132;6.370;2024-02-28T11:51:22;61.30;;;35.55;;
51943;SDS011;37969;53.132;6.370;2024-02-28T11:53:48;56.03;;;36.88;;
51943;SDS011;37969;53.132;6.370;2024-02-28T11:56:17;58.03;;;36.85;;
51943;SDS011;37969;53.132;6.370;2024-02-28T11:58:53;61.38;;;37.83;;
51943;SDS011;37969;53.132;6.370;2024-02-28T12:01:36;57.85;;;39.35;;
51943;SDS011;37969;53.132;6.370;2024-02-28T12:04:05;62.83;;;37.22;;
51943;SDS011;37969;53.132;6.370;2024-02-28T12:06:34;59.97;;;37.15;;
51943;SDS011;37969;53.132;6.370;2024-02-28T12:09:03;61.33;;;38.55;;
51943;SDS011;37969;53.132;6.370;2024-02-28T12:11:30;57.22;;;38.25;;
51943;SDS011;37969;53.132;6.370;2024-02-28T12:13:58;57.65;;;38.25;;
51943;SDS011;37969;53.132;6.370;2024-02-28T12:16:26;56.55;;;36.35;;
51943;SDS011;37969;53.132;6.370;2024-02-28T12:18:55;58.78;;;37.17;;
51943;SDS011;37969;53.132;6.370;2024-02-28T12:21:24;54.08;;;37.08;;
51943;SDS011;37969;53.132;6.370;2024-02-28T12:23:56;57.08;;;35.50;;
51943;SDS011;37969;53.132;6.370;2024-02-28T12:26:26;50.25;;;34.67;;
51943;SDS011;37969;53.132;6.370;2024-02-28T12:28:58;56.03;;;36.15;;
51943;SDS011;37969;53.132;6.370;2024-02-28T12:31:27;57.10;;;36.20;;
51943;SDS011;37969;53.132;6.370;2024-02-28T12:33:54;58.97;;;37.60;;
51943;SDS011;37969;53.132;6.370;2024-02-28T12:36:20;53.58;;;34.47;;
51943;SDS011;37969;53.132;6.370;2024-02-28T12:38:48;52.50;;;34.45;;
51943;SDS011;37969;53.132;6.370;2024-02-28T12:41:17;53.33;;;33.85;;
51943;SDS011;37969;53.132;6.370;2024-02-28T12:43:44;53.05;;;36.92;;
51943;SDS011;37969;53.132;6.370;2024-02-28T12:46:13;45.03;;;33.60;;
51943;SDS011;37969;53.132;6.370;2024-02-28T12:48:42;56.30;;;34.72;;
51943;SDS011;37969;53.132;6.370;2024-02-28T12:51:11;51.03;;;34.53;;
51943;SDS011;37969;53.132;6.370;2024-02-28T12:53:37;54.03;;;34.90;;
51943;SDS011;37969;53.132;6.370;2024-02-28T12:56:03;52.08;;;34.08;;
51943;SDS011;37969;53.132;6.370;2024-02-28T12:58:31;48.92;;;33.35;;
51943;SDS011;37969;53.132;6.370;2024-02-28T13:00:58;49.67;;;33.72;;
51943;SDS011;37969;53.132;6.370;2024-02-28T13:03:26;48.10;;;32.53;;
51943;SDS011;37969;53.132;6.370;2024-02-28T13:05:55;52.17;;;32.55;;
51943;SDS011;37969;53.132;6.370;2024-02-28T13:08:26;59.55;;;35.58;;
51943;SDS011;37969;53.132;6.370;2024-02-28T13:10:52;47.78;;;33.80;;
51943;SDS011;37969;53.132;6.370;2024-02-28T13:13:23;47.83;;;33.95;;
51943;SDS011;37969;53.132;6.370;2024-02-28T13:15:52;47.28;;;34.60;;
51943;SDS011;37969;53.132;6.370;2024-02-28T13:18:20;51.25;;;33.42;;
51943;SDS011;37969;53.132;6.370;2024-02-28T13:20:48;49.28;;;34.50;;
51943;SDS011;37969;53.132;6.370;2024-02-28T13:23:15;47.88;;;33.25;;
51943;SDS011;37969;53.132;6.370;2024-02-28T13:25:44;48.67;;;35.10;;
51943;SDS011;37969;53.132;6.370;2024-02-28T13:28:11;50.15;;;35.60;;
51943;SDS011;37969;53.132;6.370;2024-02-28T13:30:38;49.63;;;34.40;;
51943;SDS011;37969;53.132;6.370;2024-02-28T13:33:06;47.85;;;33.95;;
51943;SDS011;37969;53.132;6.370;2024-02-28T13:35:34;54.63;;;36.10;;
51943;SDS011;37969;53.132;6.370;2024-02-28T13:40:36;46.72;;;33.00;;
51943;SDS011;37969;53.132;6.370;2024-02-28T13:43:05;50.30;;;33.83;;
51943;SDS011;37969;53.132;6.370;2024-02-28T13:45:35;48.88;;;34.90;;
51943;SDS011;37969;53.132;6.370;2024-02-28T13:48:16;51.60;;;34.90;;
51943;SDS011;37969;53.132;6.370;2024-02-28T13:50:46;59.05;;;35.63;;
51943;SDS011;37969;53.132;6.370;2024-02-28T13:53:12;51.40;;;35.63;;
51943;SDS011;37969;53.132;6.370;2024-02-28T13:55:42;54.55;;;36.33;;
51943;SDS011;37969;53.132;6.370;2024-02-28T13:58:10;54.17;;;38.10;;
51943;SDS011;37969;53.132;6.370;2024-02-28T14:00:38;43.33;;;35.20;;
51943;SDS011;37969;53.132;6.370;2024-02-28T14:03:05;48.22;;;34.95;;
51943;SDS011;37969;53.132;6.370;2024-02-28T14:05:33;48.00;;;35.80;;
51943;SDS011;37969;53.132;6.370;2024-02-28T14:08:00;46.25;;;35.05;;
51943;SDS011;37969;53.132;6.370;2024-02-28T14:10:29;44.50;;;34.67;;
51943;SDS011;37969;53.132;6.370;2024-02-28T14:12:58;46.65;;;34.47;;
51943;SDS011;37969;53.132;6.370;2024-02-28T14:15:26;50.00;;;36.63;;
51943;SDS011;37969;53.132;6.370;2024-02-28T14:17:53;50.85;;;36.75;;
51943;SDS011;37969;53.132;6.370;2024-02-28T14:20:20;50.78;;;36.42;;
51943;SDS011;37969;53.132;6.370;2024-02-28T14:22:47;48.97;;;34.78;;
51943;SDS011;37969;53.132;6.370;2024-02-28T14:25:17;48.13;;;35.40;;
51943;SDS011;37969;53.132;6.370;2024-02-28T14:27:46;55.70;;;35.95;;
51943;SDS011;37969;53.132;6.370;2024-02-28T14:30:14;52.33;;;36.00;;
51943;SDS011;37969;53.132;6.370;2024-02-28T14:32:45;53.58;;;37.40;;